sensor_id;sensor_type;location;lat;lon;timestamp;P1;durP1;ratioP1;P2;durP2;ratioP2
50900;SDS011;36879;51.416;6.678;2022-11-14T00:00:20;13.80;;;9.30;;
50900;SDS011;36879;51.416;6.678;2022-11-14T00:02:46;16.48;;;9.80;;
50900;SDS011;36879;51.416;6.678;2022-11-14T00:05:12;16.38;;;10.73;;
50900;SDS011;36879;51.416;6.678;2022-11-14T00:07:38;14.38;;;9.40;;
50900;SDS011;36879;51.416;6.678;2022-11-14T00:10:04;15.98;;;10.45;;
50900;SDS011;36879;51.416;6.678;2022-11-14T00:12:30;18.35;;;11.23;;
50900;SDS011;36879;51.416;6.678;2022-11-14T00:14:56;17.50;;;10.07;;
50900;SDS011;36879;51.416;6.678;2022-11-14T00:17:22;21.83;;;10.13;;
50900;SDS011;36879;51.416;6.678;2022-11-14T00:19:48;16.67;;;9.70;;
50900;SDS011;36879;51.416;6.678;2022-11-14T00:22:14;16.23;;;9.32;;
50900;SDS011;36879;51.416;6.678;2022-11-14T00:24:40;14.23;;;9.77;;
50900;SDS011;36879;51.416;6.678;2022-11-14T00:27:06;15.57;;;9.73;;
50900;SDS011;36879;51.416;6.678;2022-11-14T00:29:32;13.32;;;8.73;;
50900;SDS011;36879;51.416;6.678;2022-11-14T00:31:58;13.80;;;8.55;;
50900;SDS011;36879;51.416;6.678;2022-11-14T00:34:24;14.32;;;8.65;;
50900;SDS011;36879;51.416;6.678;2022-11-14T00:36:50;13.23;;;8.75;;
50900;SDS011;36879;51.416;6.678;2022-11-14T00:39:16;15.05;;;8.63;;
50900;SDS011;36879;51.416;6.678;2022-11-14T00:41:42;13.10;;;8.50;;
50900;SDS011;36879;51.416;6.678;2022-11-14T00:44:08;13.73;;;9.25;;
50900;SDS011;36879;51.416;6.678;2022-11-14T00:46:35;13.50;;;8.25;;
50900;SDS011;36879;51.416;6.678;2022-11-14T00:49:02;17.17;;;8.38;;
50900;SDS011;36879;51.416;6.678;2022-11-14T00:51:28;9.73;;;7.07;;
50900;SDS011;36879;51.416;6.678;2022-11-14T00:53:54;12.68;;;7.40;;
50900;SDS011;36879;51.416;6.678;2022-11-14T00:56:20;12.27;;;7.95;;
50900;SDS011;36879;51.416;6.678;2022-11-14T00:58:46;13.73;;;7.60;;
50900;SDS011;36879;51.416;6.678;2022-11-14T01:01:12;11.88;;;6.95;;
50900;SDS011;36879;51.416;6.678;2022-11-14T01:03:38;12.50;;;7.90;;
50900;SDS011;36879;51.416;6.678;2022-11-14T01:06:05;13.80;;;7.25;;
50900;SDS011;36879;51.416;6.678;2022-11-14T01:08:31;10.27;;;6.80;;
50900;SDS011;36879;51.416;6.678;2022-11-14T01:10:58;13.05;;;6.90;;
50900;SDS011;36879;51.416;6.678;2022-11-14T01:13:24;14.13;;;8.30;;
50900;SDS011;36879;51.416;6.678;2022-11-14T01:15:53;10.82;;;7.43;;
50900;SDS011;36879;51.416;6.678;2022-11-14T01:18:19;12.05;;;7.70;;
50900;SDS011;36879;51.416;6.678;2022-11-14T01:20:46;12.52;;;8.25;;
50900;SDS011;36879;51.416;6.678;2022-11-14T01:23:13;12.65;;;8.10;;
50900;SDS011;36879;51.416;6.678;2022-11-14T01:25:40;13.82;;;8.18;;
50900;SDS011;36879;51.416;6.678;2022-11-14T01:28:13;12.98;;;8.02;;
50900;SDS011;36879;51.416;6.678;2022-11-14T01:30:40;15.02;;;8.07;;
50900;SDS011;36879;51.416;6.678;2022-11-14T01:33:06;12.77;;;7.50;;
50900;SDS011;36879;51.416;6.678;2022-11-14T01:35:33;16.15;;;8.60;;
50900;SDS011;36879;51.416;6.678;2022-11-14T01:37:59;12.15;;;7.38;;
50900;SDS011;36879;51.416;6.678;2022-11-14T01:40:26;11.38;;;7.40;;
50900;SDS011;36879;51.416;6.678;2022-11-14T01:45:56;13.07;;;8.27;;
50900;SDS011;36879;51.416;6.678;2022-11-14T01:51:07;12.35;;;8.40;;
50900;SDS011;36879;51.416;6.678;2022-11-14T01:53:36;13.90;;;8.50;;
50900;SDS011;36879;51.416;6.678;2022-11-14T01:56:03;12.70;;;8.73;;
50900;SDS011;36879;51.416;6.678;2022-11-14T01:58:30;14.90;;;8.50;;
50900;SDS011;36879;51.416;6.678;2022-11-14T02:00:57;12.40;;;8.05;;
50900;SDS011;36879;51.416;6.678;2022-11-14T02:03:23;10.70;;;7.63;;
50900;SDS011;36879;51.416;6.678;2022-11-14T02:05:49;14.02;;;8.70;;
50900;SDS011;36879;51.416;6.678;2022-11-14T02:08:16;12.57;;;9.10;;
50900;SDS011;36879;51.416;6.678;2022-11-14T02:10:42;11.82;;;7.78;;
50900;SDS011;36879;51.416;6.678;2022-11-14T02:13:09;14.02;;;8.52;;
50900;SDS011;36879;51.416;6.678;2022-11-14T02:15:35;12.25;;;8.50;;
50900;SDS011;36879;51.416;6.678;2022-11-14T02:18:01;13.10;;;8.05;;
50900;SDS011;36879;51.416;6.678;2022-11-14T02:20:28;11.98;;;8.70;;
50900;SDS011;36879;51.416;6.678;2022-11-14T02:22:58;15.30;;;8.85;;
50900;SDS011;36879;51.416;6.678;2022-11-14T02:25:24;14.88;;;8.68;;
50900;SDS011;36879;51.416;6.678;2022-11-14T02:27:50;13.45;;;9.10;;
50900;SDS011;36879;51.416;6.678;2022-11-14T02:30:18;15.50;;;9.05;;
50900;SDS011;36879;51.416;6.678;2022-11-14T02:32:44;14.35;;;9.43;;
50900;SDS011;36879;51.416;6.678;2022-11-14T02:35:13;14.68;;;9.15;;
50900;SDS011;36879;51.416;6.678;2022-11-14T02:37:39;17.00;;;9.98;;
50900;SDS011;36879;51.416;6.678;2022-11-14T02:40:05;14.07;;;8.65;;
50900;SDS011;36879;51.416;6.678;2022-11-14T02:42:32;14.57;;;9.40;;
50900;SDS011;36879;51.416;6.678;2022-11-14T02:44:58;15.07;;;9.57;;
50900;SDS011;36879;51.416;6.678;2022-11-14T02:47:24;12.65;;;8.80;;
50900;SDS011;36879;51.416;6.678;2022-11-14T02:49:50;18.63;;;10.35;;
50900;SDS011;36879;51.416;6.678;2022-11-14T02:52:16;15.57;;;9.85;;
50900;SDS011;36879;51.416;6.678;2022-11-14T02:54:42;16.48;;;11.60;;
50900;SDS011;36879;51.416;6.678;2022-11-14T02:57:11;17.45;;;10.18;;
50900;SDS011;36879;51.416;6.678;2022-11-14T02:59:37;16.92;;;10.68;;
50900;SDS011;36879;51.416;6.678;2022-11-14T03:02:03;20.90;;;13.13;;
50900;SDS011;36879;51.416;6.678;2022-11-14T03:04:29;21.95;;;13.80;;
50900;SDS011;36879;51.416;6.678;2022-11-14T03:06:55;23.20;;;14.88;;
50900;SDS011;36879;51.416;6.678;2022-11-14T03:09:21;25.90;;;15.38;;
50900;SDS011;36879;51.416;6.678;2022-11-14T03:11:47;20.70;;;15.00;;
50900;SDS011;36879;51.416;6.678;2022-11-14T03:14:13;22.80;;;15.68;;
50900;SDS011;36879;51.416;6.678;2022-11-14T03:16:39;20.52;;;14.65;;
50900;SDS011;36879;51.416;6.678;2022-11-14T03:19:05;21.95;;;15.02;;
50900;SDS011;36879;51.416;6.678;2022-11-14T03:21:31;21.17;;;14.60;;
50900;SDS011;36879;51.416;6.678;2022-11-14T03:23:57;23.13;;;15.00;;
50900;SDS011;36879;51.416;6.678;2022-11-14T03:26:23;23.30;;;13.90;;
50900;SDS011;36879;51.416;6.678;2022-11-14T03:28:49;20.08;;;12.85;;
50900;SDS011;36879;51.416;6.678;2022-11-14T03:31:15;21.95;;;14.38;;
50900;SDS011;36879;51.416;6.678;2022-11-14T03:33:41;21.02;;;13.55;;
50900;SDS011;36879;51.416;6.678;2022-11-14T03:36:07;19.60;;;13.85;;
50900;SDS011;36879;51.416;6.678;2022-11-14T03:38:33;19.08;;;13.65;;
50900;SDS011;36879;51.416;6.678;2022-11-14T03:41:01;18.83;;;12.70;;
50900;SDS011;36879;51.416;6.678;2022-11-14T03:43:31;19.42;;;13.35;;
50900;SDS011;36879;51.416;6.678;2022-11-14T03:45:58;24.13;;;12.68;;
50900;SDS011;36879;51.416;6.678;2022-11-14T03:48:24;18.98;;;12.60;;
50900;SDS011;36879;51.416;6.678;2022-11-14T03:50:52;17.50;;;11.93;;
50900;SDS011;36879;51.416;6.678;2022-11-14T03:53:18;19.65;;;12.43;;
50900;SDS011;36879;51.416;6.678;2022-11-14T03:55:44;18.42;;;12.50;;
50900;SDS011;36879;51.416;6.678;2022-11-14T03:58:10;19.00;;;13.02;;
50900;SDS011;36879;51.416;6.678;2022-11-14T04:00:36;21.42;;;14.25;;
50900;SDS011;36879;51.416;6.678;2022-11-14T04:03:02;18.55;;;13.02;;
50900;SDS011;36879;51.416;6.678;2022-11-14T04:05:28;19.48;;;12.52;;
50900;SDS011;36879;51.416;6.678;2022-11-14T04:07:54;19.17;;;12.50;;
50900;SDS011;36879;51.416;6.678;2022-11-14T04:10:20;17.40;;;12.45;;
50900;SDS011;36879;51.416;6.678;2022-11-14T04:12:49;22.27;;;13.65;;
50900;SDS011;36879;51.416;6.678;2022-11-14T04:15:16;18.08;;;11.80;;
50900;SDS011;36879;51.416;6.678;2022-11-14T04:17:42;18.00;;;11.63;;
50900;SDS011;36879;51.416;6.678;2022-11-14T04:20:08;17.25;;;11.65;;
50900;SDS011;36879;51.416;6.678;2022-11-14T04:22:34;21.95;;;14.00;;
50900;SDS011;36879;51.416;6.678;2022-11-14T04:25:00;21.27;;;13.90;;
50900;SDS011;36879;51.416;6.678;2022-11-14T04:27:27;20.08;;;13.57;;
50900;SDS011;36879;51.416;6.678;2022-11-14T04:29:53;21.15;;;13.45;;
50900;SDS011;36879;51.416;6.678;2022-11-14T04:32:21;19.20;;;13.55;;
50900;SDS011;36879;51.416;6.678;2022-11-14T04:34:47;19.52;;;13.15;;
50900;SDS011;36879;51.416;6.678;2022-11-14T04:37:13;22.50;;;13.27;;
50900;SDS011;36879;51.416;6.678;2022-11-14T04:39:39;21.05;;;12.85;;
50900;SDS011;36879;51.416;6.678;2022-11-14T04:42:05;19.38;;;12.73;;
50900;SDS011;36879;51.416;6.678;2022-11-14T04:44:31;22.33;;;13.30;;
50900;SDS011;36879;51.416;6.678;2022-11-14T04:46:57;17.75;;;12.93;;
50900;SDS011;36879;51.416;6.678;2022-11-14T04:49:23;22.10;;;13.07;;
50900;SDS011;36879;51.416;6.678;2022-11-14T04:51:49;18.58;;;13.07;;
50900;SDS011;36879;51.416;6.678;2022-11-14T04:54:15;22.45;;;13.80;;
50900;SDS011;36879;51.416;6.678;2022-11-14T04:56:41;25.13;;;13.40;;
50900;SDS011;36879;51.416;6.678;2022-11-14T04:59:07;22.08;;;13.50;;
50900;SDS011;36879;51.416;6.678;2022-11-14T05:01:33;21.75;;;13.93;;
50900;SDS011;36879;51.416;6.678;2022-11-14T05:03:59;19.50;;;14.43;;
50900;SDS011;36879;51.416;6.678;2022-11-14T05:06:25;22.75;;;15.57;;
50900;SDS011;36879;51.416;6.678;2022-11-14T05:08:51;22.20;;;14.38;;
50900;SDS011;36879;51.416;6.678;2022-11-14T05:11:18;21.48;;;13.80;;
50900;SDS011;36879;51.416;6.678;2022-11-14T05:13:45;23.23;;;13.32;;
50900;SDS011;36879;51.416;6.678;2022-11-14T05:16:11;19.25;;;13.10;;
50900;SDS011;36879;51.416;6.678;2022-11-14T05:18:37;21.13;;;14.65;;
50900;SDS011;36879;51.416;6.678;2022-11-14T05:21:04;19.63;;;14.05;;
50900;SDS011;36879;51.416;6.678;2022-11-14T05:23:30;23.80;;;14.57;;
50900;SDS011;36879;51.416;6.678;2022-11-14T05:26:04;21.75;;;14.07;;
50900;SDS011;36879;51.416;6.678;2022-11-14T05:28:30;20.20;;;13.73;;
50900;SDS011;36879;51.416;6.678;2022-11-14T05:31:07;21.02;;;13.80;;
50900;SDS011;36879;51.416;6.678;2022-11-14T05:33:34;19.75;;;14.05;;
50900;SDS011;36879;51.416;6.678;2022-11-14T05:36:03;19.38;;;12.60;;
50900;SDS011;36879;51.416;6.678;2022-11-14T05:38:29;24.13;;;13.23;;
50900;SDS011;36879;51.416;6.678;2022-11-14T05:40:55;16.38;;;11.40;;
50900;SDS011;36879;51.416;6.678;2022-11-14T05:43:21;20.48;;;12.43;;
50900;SDS011;36879;51.416;6.678;2022-11-14T05:45:47;23.02;;;12.82;;
50900;SDS011;36879;51.416;6.678;2022-11-14T05:48:13;22.27;;;12.63;;
50900;SDS011;36879;51.416;6.678;2022-11-14T05:50:39;18.52;;;11.90;;
50900;SDS011;36879;51.416;6.678;2022-11-14T05:53:05;17.77;;;10.60;;
50900;SDS011;36879;51.416;6.678;2022-11-14T05:55:31;16.98;;;11.43;;
50900;SDS011;36879;51.416;6.678;2022-11-14T05:57:57;20.10;;;12.38;;
50900;SDS011;36879;51.416;6.678;2022-11-14T06:00:24;20.20;;;11.80;;
50900;SDS011;36879;51.416;6.678;2022-11-14T06:02:53;22.40;;;11.75;;
50900;SDS011;36879;51.416;6.678;2022-11-14T06:05:20;25.17;;;11.85;;
50900;SDS011;36879;51.416;6.678;2022-11-14T06:07:46;17.30;;;10.23;;
50900;SDS011;36879;51.416;6.678;2022-11-14T06:10:12;19.83;;;11.52;;
50900;SDS011;36879;51.416;6.678;2022-11-14T06:12:38;18.63;;;10.63;;
50900;SDS011;36879;51.416;6.678;2022-11-14T06:15:04;15.93;;;10.57;;
50900;SDS011;36879;51.416;6.678;2022-11-14T06:17:30;17.95;;;11.98;;
50900;SDS011;36879;51.416;6.678;2022-11-14T06:19:56;17.40;;;12.00;;
50900;SDS011;36879;51.416;6.678;2022-11-14T06:22:22;20.15;;;12.13;;
50900;SDS011;36879;51.416;6.678;2022-11-14T06:24:48;15.55;;;10.90;;
50900;SDS011;36879;51.416;6.678;2022-11-14T06:27:14;19.77;;;11.05;;
50900;SDS011;36879;51.416;6.678;2022-11-14T06:29:40;18.05;;;9.98;;
50900;SDS011;36879;51.416;6.678;2022-11-14T06:32:06;19.83;;;11.15;;
50900;SDS011;36879;51.416;6.678;2022-11-14T06:34:33;20.88;;;11.18;;
50900;SDS011;36879;51.416;6.678;2022-11-14T06:36:59;15.52;;;10.65;;
50900;SDS011;36879;51.416;6.678;2022-11-14T06:39:25;19.42;;;10.75;;
50900;SDS011;36879;51.416;6.678;2022-11-14T06:41:51;17.63;;;10.82;;
50900;SDS011;36879;51.416;6.678;2022-11-14T06:44:17;20.58;;;11.13;;
50900;SDS011;36879;51.416;6.678;2022-11-14T06:46:43;22.58;;;11.13;;
50900;SDS011;36879;51.416;6.678;2022-11-14T06:49:09;15.98;;;10.38;;
50900;SDS011;36879;51.416;6.678;2022-11-14T06:51:35;15.20;;;10.90;;
50900;SDS011;36879;51.416;6.678;2022-11-14T06:54:01;18.13;;;10.65;;
50900;SDS011;36879;51.416;6.678;2022-11-14T06:56:27;18.45;;;10.68;;
50900;SDS011;36879;51.416;6.678;2022-11-14T06:58:53;18.30;;;9.90;;
50900;SDS011;36879;51.416;6.678;2022-11-14T07:01:19;18.90;;;10.27;;
50900;SDS011;36879;51.416;6.678;2022-11-14T07:03:46;20.13;;;11.40;;
50900;SDS011;36879;51.416;6.678;2022-11-14T07:06:13;21.40;;;11.55;;
50900;SDS011;36879;51.416;6.678;2022-11-14T07:08:39;23.13;;;10.88;;
50900;SDS011;36879;51.416;6.678;2022-11-14T07:11:09;23.98;;;12.18;;
50900;SDS011;36879;51.416;6.678;2022-11-14T07:13:36;17.88;;;10.50;;
50900;SDS011;36879;51.416;6.678;2022-11-14T07:16:02;15.98;;;9.55;;
50900;SDS011;36879;51.416;6.678;2022-11-14T07:18:32;18.02;;;11.10;;
50900;SDS011;36879;51.416;6.678;2022-11-14T07:20:59;21.75;;;11.32;;
50900;SDS011;36879;51.416;6.678;2022-11-14T07:23:26;16.15;;;10.73;;
50900;SDS011;36879;51.416;6.678;2022-11-14T07:25:52;18.70;;;10.40;;
50900;SDS011;36879;51.416;6.678;2022-11-14T07:28:17;16.98;;;11.43;;
50900;SDS011;36879;51.416;6.678;2022-11-14T07:30:43;17.70;;;10.40;;
50900;SDS011;36879;51.416;6.678;2022-11-14T07:33:09;20.20;;;12.23;;
50900;SDS011;36879;51.416;6.678;2022-11-14T07:35:37;16.98;;;11.52;;
50900;SDS011;36879;51.416;6.678;2022-11-14T07:38:04;19.88;;;10.50;;
50900;SDS011;36879;51.416;6.678;2022-11-14T07:40:30;22.33;;;12.57;;
50900;SDS011;36879;51.416;6.678;2022-11-14T07:42:56;21.27;;;12.35;;
50900;SDS011;36879;51.416;6.678;2022-11-14T07:45:23;26.85;;;13.23;;
50900;SDS011;36879;51.416;6.678;2022-11-14T07:47:49;26.33;;;14.32;;
50900;SDS011;36879;51.416;6.678;2022-11-14T07:50:18;22.75;;;13.55;;
50900;SDS011;36879;51.416;6.678;2022-11-14T07:52:48;22.77;;;14.00;;
50900;SDS011;36879;51.416;6.678;2022-11-14T07:55:14;24.73;;;13.40;;
50900;SDS011;36879;51.416;6.678;2022-11-14T07:57:40;24.80;;;15.57;;
50900;SDS011;36879;51.416;6.678;2022-11-14T08:00:07;25.75;;;15.35;;
50900;SDS011;36879;51.416;6.678;2022-11-14T08:02:33;23.48;;;14.77;;
50900;SDS011;36879;51.416;6.678;2022-11-14T08:04:59;26.55;;;15.48;;
50900;SDS011;36879;51.416;6.678;2022-11-14T08:07:25;21.83;;;12.25;;
50900;SDS011;36879;51.416;6.678;2022-11-14T08:09:51;24.38;;;14.13;;
50900;SDS011;36879;51.416;6.678;2022-11-14T08:12:17;29.13;;;15.63;;
50900;SDS011;36879;51.416;6.678;2022-11-14T08:14:43;25.80;;;16.38;;
50900;SDS011;36879;51.416;6.678;2022-11-14T08:17:09;27.98;;;17.70;;
50900;SDS011;36879;51.416;6.678;2022-11-14T08:19:35;26.42;;;15.05;;
50900;SDS011;36879;51.416;6.678;2022-11-14T08:22:01;29.63;;;15.05;;
50900;SDS011;36879;51.416;6.678;2022-11-14T08:24:27;23.40;;;14.70;;
50900;SDS011;36879;51.416;6.678;2022-11-14T08:26:53;20.70;;;12.77;;
50900;SDS011;36879;51.416;6.678;2022-11-14T08:29:19;20.85;;;12.68;;
50900;SDS011;36879;51.416;6.678;2022-11-14T08:31:45;21.88;;;11.93;;
50900;SDS011;36879;51.416;6.678;2022-11-14T08:34:11;22.27;;;13.10;;
50900;SDS011;36879;51.416;6.678;2022-11-14T08:36:37;23.00;;;13.10;;
50900;SDS011;36879;51.416;6.678;2022-11-14T08:39:03;20.65;;;13.43;;
50900;SDS011;36879;51.416;6.678;2022-11-14T08:41:29;21.38;;;11.30;;
50900;SDS011;36879;51.416;6.678;2022-11-14T08:43:55;18.35;;;10.88;;
50900;SDS011;36879;51.416;6.678;2022-11-14T08:46:21;21.90;;;11.18;;
50900;SDS011;36879;51.416;6.678;2022-11-14T08:48:47;20.98;;;12.57;;
50900;SDS011;36879;51.416;6.678;2022-11-14T08:51:13;24.95;;;12.68;;
50900;SDS011;36879;51.416;6.678;2022-11-14T08:53:39;19.23;;;11.65;;
50900;SDS011;36879;51.416;6.678;2022-11-14T08:56:05;21.08;;;12.55;;
50900;SDS011;36879;51.416;6.678;2022-11-14T08:58:31;22.02;;;11.50;;
50900;SDS011;36879;51.416;6.678;2022-11-14T09:00:58;22.80;;;12.60;;
50900;SDS011;36879;51.416;6.678;2022-11-14T09:03:25;25.33;;;12.95;;
50900;SDS011;36879;51.416;6.678;2022-11-14T09:05:51;23.20;;;12.35;;
50900;SDS011;36879;51.416;6.678;2022-11-14T09:08:17;24.27;;;13.18;;
50900;SDS011;36879;51.416;6.678;2022-11-14T09:10:43;28.75;;;14.45;;
50900;SDS011;36879;51.416;6.678;2022-11-14T09:13:09;28.08;;;14.30;;
50900;SDS011;36879;51.416;6.678;2022-11-14T09:15:35;25.38;;;13.02;;
50900;SDS011;36879;51.416;6.678;2022-11-14T09:18:01;30.23;;;15.00;;
50900;SDS011;36879;51.416;6.678;2022-11-14T09:20:27;28.90;;;13.95;;
50900;SDS011;36879;51.416;6.678;2022-11-14T09:22:59;24.23;;;12.60;;
50900;SDS011;36879;51.416;6.678;2022-11-14T09:25:25;29.25;;;15.48;;
50900;SDS011;36879;51.416;6.678;2022-11-14T09:27:51;28.58;;;15.93;;
50900;SDS011;36879;51.416;6.678;2022-11-14T09:30:17;28.60;;;15.13;;
50900;SDS011;36879;51.416;6.678;2022-11-14T09:32:43;27.80;;;14.85;;
50900;SDS011;36879;51.416;6.678;2022-11-14T09:35:09;28.25;;;17.15;;
50900;SDS011;36879;51.416;6.678;2022-11-14T09:37:37;33.38;;;17.10;;
50900;SDS011;36879;51.416;6.678;2022-11-14T09:40:03;28.42;;;15.50;;
50900;SDS011;36879;51.416;6.678;2022-11-14T09:45:02;24.25;;;14.82;;
50900;SDS011;36879;51.416;6.678;2022-11-14T09:47:32;28.20;;;13.75;;
50900;SDS011;36879;51.416;6.678;2022-11-14T09:50:04;24.58;;;14.43;;
50900;SDS011;36879;51.416;6.678;2022-11-14T09:55:02;34.08;;;14.77;;
50900;SDS011;36879;51.416;6.678;2022-11-14T09:57:29;27.58;;;13.73;;
50900;SDS011;36879;51.416;6.678;2022-11-14T09:59:55;25.90;;;13.02;;
50900;SDS011;36879;51.416;6.678;2022-11-14T10:02:32;21.50;;;12.32;;
50900;SDS011;36879;51.416;6.678;2022-11-14T10:05:06;22.00;;;11.43;;
50900;SDS011;36879;51.416;6.678;2022-11-14T10:15:30;19.70;;;11.30;;
50900;SDS011;36879;51.416;6.678;2022-11-14T10:20:33;22.17;;;12.48;;
50900;SDS011;36879;51.416;6.678;2022-11-14T10:25:35;23.65;;;12.18;;
50900;SDS011;36879;51.416;6.678;2022-11-14T10:28:52;20.80;;;11.48;;
50900;SDS011;36879;51.416;6.678;2022-11-14T10:33:48;19.00;;;10.18;;
50900;SDS011;36879;51.416;6.678;2022-11-14T10:38:53;19.23;;;9.57;;
50900;SDS011;36879;51.416;6.678;2022-11-14T10:41:25;17.20;;;9.13;;
50900;SDS011;36879;51.416;6.678;2022-11-14T10:43:52;15.88;;;8.48;;
50900;SDS011;36879;51.416;6.678;2022-11-14T10:48:46;15.10;;;6.78;;
50900;SDS011;36879;51.416;6.678;2022-11-14T10:53:59;12.85;;;7.32;;
50900;SDS011;36879;51.416;6.678;2022-11-14T10:56:27;11.43;;;6.00;;
50900;SDS011;36879;51.416;6.678;2022-11-14T10:58:53;10.23;;;5.70;;
50900;SDS011;36879;51.416;6.678;2022-11-14T11:01:39;8.18;;;5.43;;
50900;SDS011;36879;51.416;6.678;2022-11-14T11:04:23;11.90;;;6.68;;
50900;SDS011;36879;51.416;6.678;2022-11-14T11:06:51;11.18;;;5.65;;
50900;SDS011;36879;51.416;6.678;2022-11-14T11:09:21;11.35;;;5.47;;
50900;SDS011;36879;51.416;6.678;2022-11-14T11:12:06;9.25;;;5.07;;
50900;SDS011;36879;51.416;6.678;2022-11-14T11:14:33;10.70;;;5.78;;
50900;SDS011;36879;51.416;6.678;2022-11-14T11:19:39;11.40;;;7.13;;
50900;SDS011;36879;51.416;6.678;2022-11-14T11:24:50;11.85;;;6.47;;
50900;SDS011;36879;51.416;6.678;2022-11-14T11:27:26;9.70;;;6.00;;
50900;SDS011;36879;51.416;6.678;2022-11-14T11:32:24;10.23;;;5.80;;
50900;SDS011;36879;51.416;6.678;2022-11-14T11:34:51;12.93;;;6.53;;
50900;SDS011;36879;51.416;6.678;2022-11-14T11:37:18;12.10;;;7.97;;
50900;SDS011;36879;51.416;6.678;2022-11-14T11:39:47;14.85;;;7.68;;
50900;SDS011;36879;51.416;6.678;2022-11-14T11:42:19;12.93;;;7.90;;
50900;SDS011;36879;51.416;6.678;2022-11-14T11:44:47;16.17;;;8.55;;
50900;SDS011;36879;51.416;6.678;2022-11-14T11:47:15;12.77;;;7.45;;
50900;SDS011;36879;51.416;6.678;2022-11-14T11:49:49;15.55;;;8.80;;
50900;SDS011;36879;51.416;6.678;2022-11-14T11:57:42;16.98;;;7.78;;
50900;SDS011;36879;51.416;6.678;2022-11-14T12:02:40;11.43;;;8.10;;
50900;SDS011;36879;51.416;6.678;2022-11-14T12:05:10;15.32;;;9.15;;
50900;SDS011;36879;51.416;6.678;2022-11-14T12:10:24;11.70;;;7.63;;
50900;SDS011;36879;51.416;6.678;2022-11-14T12:15:30;14.02;;;8.35;;
50900;SDS011;36879;51.416;6.678;2022-11-14T12:28:29;12.02;;;7.50;;
50900;SDS011;36879;51.416;6.678;2022-11-14T12:31:00;13.73;;;8.25;;
50900;SDS011;36879;51.416;6.678;2022-11-14T12:33:28;15.15;;;8.93;;
50900;SDS011;36879;51.416;6.678;2022-11-14T12:36:00;13.43;;;8.82;;
50900;SDS011;36879;51.416;6.678;2022-11-14T12:38:29;18.27;;;8.35;;
50900;SDS011;36879;51.416;6.678;2022-11-14T12:40:57;13.63;;;7.78;;
50900;SDS011;36879;51.416;6.678;2022-11-14T12:43:29;13.30;;;7.82;;
50900;SDS011;36879;51.416;6.678;2022-11-14T12:45:57;15.93;;;8.30;;
50900;SDS011;36879;51.416;6.678;2022-11-14T12:50:50;14.82;;;8.02;;
50900;SDS011;36879;51.416;6.678;2022-11-14T12:53:38;15.43;;;8.52;;
50900;SDS011;36879;51.416;6.678;2022-11-14T13:03:36;16.63;;;9.05;;
50900;SDS011;36879;51.416;6.678;2022-11-14T13:06:29;13.70;;;9.27;;
50900;SDS011;36879;51.416;6.678;2022-11-14T13:09:33;13.57;;;8.05;;
50900;SDS011;36879;51.416;6.678;2022-11-14T13:11:41;14.68;;;8.57;;
50900;SDS011;36879;51.416;6.678;2022-11-14T13:14:27;19.42;;;10.75;;
50900;SDS011;36879;51.416;6.678;2022-11-14T13:19:57;13.18;;;8.02;;
50900;SDS011;36879;51.416;6.678;2022-11-14T13:22:55;15.52;;;8.63;;
50900;SDS011;36879;51.416;6.678;2022-11-14T13:25:22;15.00;;;8.65;;
50900;SDS011;36879;51.416;6.678;2022-11-14T13:27:48;14.40;;;7.70;;
50900;SDS011;36879;51.416;6.678;2022-11-14T13:30:14;14.73;;;8.02;;
50900;SDS011;36879;51.416;6.678;2022-11-14T13:40:22;15.02;;;8.52;;
50900;SDS011;36879;51.416;6.678;2022-11-14T13:50:34;15.50;;;8.95;;
50900;SDS011;36879;51.416;6.678;2022-11-14T13:53:01;16.17;;;8.80;;
50900;SDS011;36879;51.416;6.678;2022-11-14T14:00:46;16.83;;;8.57;;
50900;SDS011;36879;51.416;6.678;2022-11-14T14:03:24;15.20;;;9.05;;
50900;SDS011;36879;51.416;6.678;2022-11-14T14:08:55;15.82;;;9.27;;
50900;SDS011;36879;51.416;6.678;2022-11-14T14:21:33;21.63;;;11.20;;
50900;SDS011;36879;51.416;6.678;2022-11-14T14:26:38;16.20;;;10.07;;
50900;SDS011;36879;51.416;6.678;2022-11-14T14:29:16;19.45;;;11.98;;
50900;SDS011;36879;51.416;6.678;2022-11-14T14:31:44;17.42;;;11.40;;
50900;SDS011;36879;51.416;6.678;2022-11-14T14:34:26;15.57;;;10.45;;
50900;SDS011;36879;51.416;6.678;2022-11-14T14:36:54;18.42;;;11.43;;
50900;SDS011;36879;51.416;6.678;2022-11-14T14:39:24;18.15;;;10.55;;
50900;SDS011;36879;51.416;6.678;2022-11-14T14:41:50;18.52;;;11.07;;
50900;SDS011;36879;51.416;6.678;2022-11-14T14:44:24;19.95;;;11.63;;
50900;SDS011;36879;51.416;6.678;2022-11-14T14:46:51;17.65;;;11.85;;
50900;SDS011;36879;51.416;6.678;2022-11-14T14:49:18;17.40;;;10.88;;
50900;SDS011;36879;51.416;6.678;2022-11-14T14:51:45;25.48;;;10.85;;
50900;SDS011;36879;51.416;6.678;2022-11-14T14:54:18;20.00;;;10.65;;
50900;SDS011;36879;51.416;6.678;2022-11-14T14:56:54;18.92;;;10.73;;
50900;SDS011;36879;51.416;6.678;2022-11-14T14:59:24;23.45;;;12.73;;
50900;SDS011;36879;51.416;6.678;2022-11-14T15:01:50;22.40;;;12.82;;
50900;SDS011;36879;51.416;6.678;2022-11-14T15:04:17;19.45;;;11.30;;
50900;SDS011;36879;51.416;6.678;2022-11-14T15:06:44;18.45;;;10.95;;
50900;SDS011;36879;51.416;6.678;2022-11-14T15:11:39;24.70;;;13.48;;
50900;SDS011;36879;51.416;6.678;2022-11-14T15:14:21;26.60;;;13.23;;
50900;SDS011;36879;51.416;6.678;2022-11-14T15:16:47;22.20;;;13.95;;
50900;SDS011;36879;51.416;6.678;2022-11-14T15:19:16;17.48;;;10.80;;
50900;SDS011;36879;51.416;6.678;2022-11-14T15:21:42;19.08;;;11.32;;
50900;SDS011;36879;51.416;6.678;2022-11-14T15:24:12;20.77;;;10.38;;
50900;SDS011;36879;51.416;6.678;2022-11-14T15:26:39;22.33;;;12.30;;
50900;SDS011;36879;51.416;6.678;2022-11-14T15:31:42;20.33;;;11.57;;
50900;SDS011;36879;51.416;6.678;2022-11-14T15:34:26;15.93;;;11.30;;
50900;SDS011;36879;51.416;6.678;2022-11-14T15:39:37;22.67;;;11.25;;
50900;SDS011;36879;51.416;6.678;2022-11-14T15:42:37;24.33;;;12.18;;
50900;SDS011;36879;51.416;6.678;2022-11-14T15:44:56;19.52;;;12.40;;
50900;SDS011;36879;51.416;6.678;2022-11-14T15:47:23;20.60;;;11.20;;
50900;SDS011;36879;51.416;6.678;2022-11-14T15:49:56;22.35;;;12.35;;
50900;SDS011;36879;51.416;6.678;2022-11-14T15:52:24;23.45;;;15.05;;
50900;SDS011;36879;51.416;6.678;2022-11-14T15:54:51;20.00;;;12.13;;
50900;SDS011;36879;51.416;6.678;2022-11-14T15:57:17;22.92;;;13.90;;
50900;SDS011;36879;51.416;6.678;2022-11-14T15:59:43;24.90;;;14.45;;
50900;SDS011;36879;51.416;6.678;2022-11-14T16:04:41;19.05;;;11.77;;
50900;SDS011;36879;51.416;6.678;2022-11-14T16:07:09;21.13;;;11.32;;
50900;SDS011;36879;51.416;6.678;2022-11-14T16:09:36;23.85;;;12.57;;
50900;SDS011;36879;51.416;6.678;2022-11-14T16:12:02;19.25;;;10.52;;
50900;SDS011;36879;51.416;6.678;2022-11-14T16:14:28;21.02;;;12.13;;
50900;SDS011;36879;51.416;6.678;2022-11-14T16:16:54;16.73;;;11.15;;
50900;SDS011;36879;51.416;6.678;2022-11-14T16:19:20;23.48;;;12.52;;
50900;SDS011;36879;51.416;6.678;2022-11-14T16:21:46;22.48;;;11.52;;
50900;SDS011;36879;51.416;6.678;2022-11-14T16:24:13;24.48;;;12.88;;
50900;SDS011;36879;51.416;6.678;2022-11-14T16:26:39;21.88;;;11.13;;
50900;SDS011;36879;51.416;6.678;2022-11-14T16:29:05;18.55;;;10.70;;
50900;SDS011;36879;51.416;6.678;2022-11-14T16:31:32;14.05;;;9.75;;
50900;SDS011;36879;51.416;6.678;2022-11-14T16:33:58;15.30;;;9.23;;